Time;durP1;ratioP1;P1;durP2;ratioP2;P2;SDS_P1;SDS_P2;PMS_P1;PMS_P2;Temp;Humidity;BMP_temperature;BMP_pressure;BME280_temperature;BME280_humidity;BME280_pressure;Samples;Min_cycle;Max_cycle;Signal;HPM_P1;HPM_P2
2021/12/24 00:01:52;;;;;;;18.40;10.40;;;3.60;99.90;;;;;;5092669;28;20470;-81
2021/12/24 00:04:18;;;;;;;15.43;9.00;;;3.50;99.90;;;;;;5094170;28;20967;-80
2021/12/24 00:06:43;;;;;;;20.50;8.77;;;3.50;99.90;;;;;;5093997;28;20425;-83
2021/12/24 00:09:09;;;;;;;14.00;9.20;;;3.60;99.90;;;;;;5094300;28;20407;-81
2021/12/24 00:11:37;;;;;;;16.27;9.23;;;3.60;99.90;;;;;;5094200;28;20229;-82
2021/12/24 00:14:06;;;;;;;12.77;8.20;;;3.60;99.90;;;;;;5094073;28;20408;-80
2021/12/24 00:16:40;;;;;;;14.20;8.30;;;3.60;99.90;;;;;;5093801;28;20416;-83
2021/12/24 00:35:32;;;;;;;15.87;7.60;;;3.80;99.90;;;;;;5093890;28;20921;-83
2021/12/24 00:38:03;;;;;;;13.17;9.10;;;3.80;99.90;;;;;;5093580;28;20427;-79
2021/12/24 00:40:31;;;;;;;14.33;8.33;;;3.80;99.90;;;;;;5092173;28;20562;-80
2021/12/24 00:42:58;;;;;;;12.40;9.30;;;3.90;99.90;;;;;;5093299;28;20425;-80
2021/12/24 00:45:29;;;;;;;13.00;7.30;;;3.90;99.90;;;;;;5093041;28;20413;-80
2021/12/24 00:47:58;;;;;;;12.10;7.80;;;3.80;99.90;;;;;;5093328;28;20424;-79
2021/12/24 00:50:46;;;;;;;9.50;7.03;;;3.80;99.90;;;;;;5092186;28;20905;-80
2021/12/24 00:56:01;;;;;;;14.30;6.87;;;3.80;99.90;;;;;;5064233;28;20533;-84
2021/12/24 00:58:27;;;;;;;15.37;8.80;;;3.90;99.90;;;;;;5093389;28;20458;-80
2021/12/24 01:00:53;;;;;;;11.60;7.77;;;3.90;99.90;;;;;;5092843;28;20501;-79
2021/12/24 01:03:19;;;;;;;12.83;8.33;;;4.00;99.90;;;;;;5093091;28;20166;-80
2021/12/24 01:05:45;;;;;;;10.53;7.33;;;3.90;99.90;;;;;;5093032;28;20164;-81
2021/12/24 01:08:13;;;;;;;9.03;6.50;;;3.90;99.90;;;;;;5093146;28;20547;-80
2021/12/24 01:10:45;;;;;;;13.20;6.53;;;4.00;99.90;;;;;;5092926;28;20501;-79
2021/12/24 01:13:11;;;;;;;14.77;6.83;;;4.00;99.90;;;;;;5093065;28;20415;-83
2021/12/24 01:15:43;;;;;;;10.07;5.93;;;4.00;99.90;;;;;;5092661;28;20774;-81
2021/12/24 01:18:18;;;;;;;13.13;6.93;;;4.00;99.90;;;;;;5093270;28;20986;-81
2021/12/24 01:20:48;;;;;;;9.73;6.53;;;4.00;99.90;;;;;;5093206;28;20569;-83
2021/12/24 01:25:54;;;;;;;10.60;6.40;;;4.00;99.90;;;;;;5093280;28;20422;-90
2021/12/24 01:44:33;;;;;;;11.27;6.03;;;4.10;99.90;;;;;;5093189;28;20502;-80
2021/12/24 01:47:01;;;;;;;9.67;7.10;;;4.10;99.90;;;;;;5093898;28;20435;-80
2021/12/24 01:49:27;;;;;;;11.07;6.50;;;4.20;99.90;;;;;;5095642;28;20926;-79
2021/12/24 01:51:54;;;;;;;10.47;6.70;;;4.20;99.90;;;;;;5096958;28;20509;-80
2021/12/24 01:54:20;;;;;;;12.37;7.00;;;4.20;99.90;;;;;;5096945;28;20260;-80
2021/12/24 01:56:46;;;;;;;12.77;7.20;;;4.20;99.90;;;;;;5096506;28;20954;-80
2021/12/24 01:59:13;;;;;;;11.50;6.77;;;4.20;99.90;;;;;;5096674;28;20255;-80
2021/12/24 02:01:39;;;;;;;10.60;6.30;;;4.20;99.90;;;;;;5096569;28;20885;-79
2021/12/24 02:04:06;;;;;;;13.00;6.70;;;4.20;99.90;;;;;;5096660;28;20902;-80
2021/12/24 02:06:32;;;;;;;8.13;5.43;;;4.20;99.90;;;;;;5096685;28;20418;-79
2021/12/24 02:08:57;;;;;;;7.80;5.60;;;4.20;99.90;;;;;;5096972;28;20491;-79
2021/12/24 02:11:24;;;;;;;8.63;4.90;;;4.20;99.90;;;;;;5095395;28;20517;-79
2021/12/24 02:13:50;;;;;;;7.97;5.00;;;4.20;99.90;;;;;;5096678;28;20635;-78
2021/12/24 02:16:34;;;;;;;8.70;5.23;;;4.20;99.90;;;;;;5096141;28;20542;-81
2021/12/24 02:29:48;;;;;;;8.63;6.23;;;4.30;99.90;;;;;;5096236;28;20431;-79
2021/12/24 02:32:14;;;;;;;9.13;6.03;;;4.30;99.90;;;;;;5096174;28;20407;-79
2021/12/24 02:34:40;;;;;;;9.00;5.23;;;4.30;99.90;;;;;;5096356;28;20447;-79
2021/12/24 02:37:05;;;;;;;9.50;4.90;;;4.30;99.90;;;;;;5096318;28;20199;-80
2021/12/24 02:39:31;;;;;;;8.67;5.80;;;4.30;99.90;;;;;;5094637;28;20228;-80
2021/12/24 02:41:57;;;;;;;8.13;5.70;;;4.30;99.90;;;;;;5095841;28;20610;-79
2021/12/24 02:44:23;;;;;;;7.33;5.90;;;4.40;99.90;;;;;;5111659;28;20226;-79
2021/12/24 02:53:56;;;;;;;10.20;5.50;;;4.40;99.90;;;;;;5095821;28;20564;-79
2021/12/24 02:54:50;;;;;;;7.87;5.03;;;4.40;99.90;;;;;;5095807;28;20433;-79
2021/12/24 02:57:20;;;;;;;8.80;5.50;;;4.40;99.90;;;;;;5095674;28;20927;-79
2021/12/24 02:59:59;;;;;;;7.33;5.33;;;4.50;99.90;;;;;;5095549;28;20169;-79
2021/12/24 03:02:26;;;;;;;7.40;4.90;;;4.50;99.90;;;;;;5095522;28;20470;-79
2021/12/24 03:04:51;;;;;;;8.87;4.43;;;4.50;99.90;;;;;;5095413;28;20406;-79
2021/12/24 03:07:17;;;;;;;5.97;4.60;;;4.50;99.90;;;;;;5095505;28;20415;-79
2021/12/24 03:09:43;;;;;;;7.27;5.13;;;4.50;99.90;;;;;;5095367;28;20650;-79
2021/12/24 03:12:09;;;;;;;9.87;5.10;;;4.50;99.90;;;;;;5095403;28;20232;-80
2021/12/24 03:14:35;;;;;;;7.20;4.70;;;4.50;99.90;;;;;;5095359;28;20402;-80
2021/12/24 03:17:02;;;;;;;7.60;4.93;;;4.50;99.90;;;;;;5094961;28;20705;-79
2021/12/24 03:19:32;;;;;;;7.67;4.60;;;4.50;99.90;;;;;;5094283;28;20210;-80
2021/12/24 03:22:07;;;;;;;7.20;5.00;;;4.50;99.90;;;;;;5095133;28;20465;-80
2021/12/24 03:24:35;;;;;;;4.83;4.40;;;4.50;99.90;;;;;;5095197;28;20407;-79
2021/12/24 03:27:01;;;;;;;6.07;4.00;;;4.50;99.90;;;;;;5095045;28;20446;-79
2021/12/24 03:29:27;;;;;;;8.40;5.67;;;4.50;99.90;;;;;;5095136;28;20529;-80
2021/12/24 03:31:53;;;;;;;9.30;4.97;;;4.50;99.90;;;;;;5093366;28;20933;-79
2021/12/24 03:34:21;;;;;;;10.50;6.13;;;4.50;99.90;;;;;;5094874;28;20257;-80
2021/12/24 03:36:47;;;;;;;6.60;4.90;;;4.50;99.90;;;;;;5094974;28;20183;-80
2021/12/24 03:39:13;;;;;;;6.40;4.40;;;4.50;99.90;;;;;;5094674;28;20449;-80
2021/12/24 03:41:39;;;;;;;9.13;5.80;;;4.60;99.90;;;;;;5094754;28;20567;-80
2021/12/24 03:44:11;;;;;;;7.30;4.20;;;4.60;99.90;;;;;;5095005;28;20452;-80
2021/12/24 03:49:17;;;;;;;6.93;4.70;;;4.60;99.90;;;;;;5094869;28;20418;-80
2021/12/24 03:51:52;;;;;;;7.50;5.70;;;4.60;99.90;;;;;;5094705;28;20794;-80
2021/12/24 03:57:03;;;;;;;7.20;5.30;;;4.60;99.90;;;;;;5094816;28;20490;-80
2021/12/24 03:59:28;;;;;;;6.60;4.27;;;4.60;99.90;;;;;;5094399;28;20777;-79
2021/12/24 04:01:54;;;;;;;8.17;4.90;;;4.60;99.90;;;;;;5094186;28;20464;-80
2021/12/24 04:04:19;;;;;;;7.77;4.17;;;4.60;99.90;;;;;;5093184;28;20628;-80
2021/12/24 04:06:47;;;;;;;8.50;4.80;;;4.60;99.90;;;;;;5094492;28;20588;-80
2021/12/24 04:09:12;;;;;;;5.73;4.73;;;4.70;99.90;;;;;;5093816;28;20532;-79
2021/12/24 04:11:39;;;;;;;9.73;5.37;;;4.70;99.90;;;;;;5094207;28;20437;-80
2021/12/24 04:14:06;;;;;;;7.07;4.43;;;4.70;99.90;;;;;;5094248;28;20164;-80
2021/12/24 04:16:32;;;;;;;4.87;3.47;;;4.60;99.90;;;;;;5092723;28;20492;-80
2021/12/24 04:26:55;;;;;;;7.03;4.07;;;4.70;99.90;;;;;;5094120;28;20498;-80
2021/12/24 04:29:20;;;;;;;9.30;4.90;;;4.70;99.90;;;;;;5094065;28;20824;-80
2021/12/24 04:31:55;;;;;;;7.50;3.83;;;4.70;99.90;;;;;;5093637;28;20191;-81
2021/12/24 04:34:25;;;;;;;7.17;5.10;;;4.70;99.90;;;;;;5093926;28;20179;-80
2021/12/24 05:01:59;;;;;;;7.57;4.27;;;4.80;99.90;;;;;;5093188;28;20915;-80
2021/12/24 05:04:30;;;;;;;10.67;4.50;;;4.80;99.90;;;;;;5093443;28;20419;-80
2021/12/24 05:07:05;;;;;;;5.70;3.87;;;4.90;99.90;;;;;;5093451;28;20416;-80
2021/12/24 05:09:31;;;;;;;5.80;3.97;;;4.80;99.90;;;;;;5093463;28;20463;-80
2021/12/24 05:11:57;;;;;;;6.50;3.47;;;4.90;99.90;;;;;;5093288;28;20403;-80
2021/12/24 05:14:23;;;;;;;6.50;2.60;;;4.90;99.90;;;;;;5092801;28;20413;-81
2021/12/24 05:16:51;;;;;;;5.30;2.80;;;4.90;99.90;;;;;;5093163;28;20237;-80
2021/12/24 05:22:02;;;;;;;4.60;3.30;;;4.80;99.90;;;;;;5092367;28;20527;-79
2021/12/24 05:24:30;;;;;;;4.47;2.70;;;4.80;99.90;;;;;;5092026;28;20415;-80
2021/12/24 05:27:05;;;;;;;5.83;3.90;;;4.90;99.90;;;;;;5093113;28;20414;-80
2021/12/24 05:29:30;;;;;;;6.80;2.90;;;4.90;99.90;;;;;;5092886;28;20407;-80
2021/12/24 05:31:56;;;;;;;5.13;3.83;;;4.90;99.90;;;;;;5092967;28;20418;-80
2021/12/24 05:34:22;;;;;;;5.30;3.43;;;4.90;99.90;;;;;;5093012;28;20164;-80
2021/12/24 05:36:49;;;;;;;5.33;2.77;;;4.80;99.90;;;;;;5091923;28;20200;-80
2021/12/24 05:39:17;;;;;;;6.90;4.47;;;4.80;99.90;;;;;;5091474;28;20220;-80
2021/12/24 05:41:43;;;;;;;6.70;3.83;;;4.80;99.90;;;;;;5092903;28;20468;-80
2021/12/24 05:44:10;;;;;;;6.10;3.47;;;4.80;99.90;;;;;;5092674;28;20414;-80
2021/12/24 05:46:37;;;;;;;5.83;4.43;;;4.80;99.90;;;;;;5092555;28;20226;-80
2021/12/24 05:49:03;;;;;;;4.80;3.30;;;4.80;99.90;;;;;;5092893;28;20410;-80
2021/12/24 05:51:29;;;;;;;7.13;4.07;;;4.80;99.90;;;;;;5092940;28;20406;-80
2021/12/24 05:53:55;;;;;;;6.70;4.43;;;4.80;99.90;;;;;;5092934;28;20833;-80
2021/12/24 05:56:21;;;;;;;5.90;3.70;;;4.80;99.90;;;;;;5092809;28;20413;-80
2021/12/24 05:58:46;;;;;;;7.20;4.27;;;4.80;99.90;;;;;;5091748;28;20168;-80
2021/12/24 06:01:12;;;;;;;8.27;6.00;;;4.80;99.90;;;;;;5092311;28;20254;-80
2021/12/24 06:03:38;;;;;;;10.40;6.70;;;4.80;99.90;;;;;;5092919;28;20530;-79
2021/12/24 06:06:03;;;;;;;11.07;7.20;;;4.80;99.90;;;;;;5092828;28;20263;-79
2021/12/24 06:08:29;;;;;;;10.67;7.00;;;4.80;99.90;;;;;;5092735;28;20410;-80
2021/12/24 06:10:55;;;;;;;10.07;6.90;;;4.80;99.90;;;;;;5092923;28;20177;-80
2021/12/24 06:13:24;;;;;;;15.07;7.77;;;4.80;99.90;;;;;;5092639;28;20545;-80
2021/12/24 06:15:50;;;;;;;11.90;7.37;;;4.80;99.90;;;;;;5092241;28;20418;-80
2021/12/24 06:18:23;;;;;;;9.70;6.03;;;4.80;99.90;;;;;;5092647;28;20414;-80
2021/12/24 06:20:49;;;;;;;13.03;7.20;;;4.70;99.90;;;;;;5092432;28;20461;-81
2021/12/24 06:23:15;;;;;;;11.10;8.00;;;4.70;99.90;;;;;;5092585;28;20410;-81
2021/12/24 06:25:41;;;;;;;11.93;6.37;;;4.70;99.90;;;;;;5092606;28;20407;-81
2021/12/24 06:28:06;;;;;;;12.00;7.57;;;4.70;99.90;;;;;;5108432;28;20177;-80
2021/12/24 06:30:32;;;;;;;10.97;6.53;;;4.70;99.90;;;;;;5092213;28;20174;-80
2021/12/24 06:32:59;;;;;;;13.53;6.37;;;4.70;99.90;;;;;;5093272;28;20176;-80
2021/12/24 06:35:26;;;;;;;8.10;5.60;;;4.60;99.90;;;;;;5096161;28;20165;-80
2021/12/24 06:37:53;;;;;;;9.27;5.70;;;4.60;99.90;;;;;;5095901;28;20411;-80
2021/12/24 06:40:19;;;;;;;11.47;5.20;;;4.60;99.90;;;;;;5095943;28;20934;-81
2021/12/24 06:42:45;;;;;;;9.67;6.47;;;4.50;99.90;;;;;;5095957;28;20426;-80
2021/12/24 06:45:11;;;;;;;9.63;5.43;;;4.50;99.90;;;;;;5095538;28;20429;-80
2021/12/24 06:47:37;;;;;;;8.17;4.90;;;4.50;99.90;;;;;;5095972;28;20173;-80
2021/12/24 06:50:04;;;;;;;8.83;4.80;;;4.50;99.90;;;;;;5095809;28;20899;-80
2021/12/24 06:52:30;;;;;;;8.10;4.47;;;4.50;99.90;;;;;;5095696;28;20921;-80
2021/12/24 06:54:56;;;;;;;8.27;5.20;;;4.50;99.90;;;;;;5095615;28;20407;-80
2021/12/24 06:57:23;;;;;;;8.10;3.67;;;4.50;99.90;;;;;;5095546;28;20238;-81
2021/12/24 06:59:49;;;;;;;5.70;2.60;;;4.40;99.90;;;;;;5093794;28;20657;-81
2021/12/24 07:02:15;;;;;;;4.17;2.30;;;4.40;99.90;;;;;;5095661;28;20470;-80
2021/12/24 07:04:40;;;;;;;6.43;3.07;;;4.30;99.90;;;;;;5095508;28;20164;-80
2021/12/24 07:07:06;;;;;;;3.67;2.43;;;4.30;99.90;;;;;;5095505;28;20698;-80
2021/12/24 07:09:32;;;;;;;6.70;3.20;;;4.20;99.90;;;;;;5095412;28;20163;-81
2021/12/24 07:11:57;;;;;;;4.30;2.20;;;4.10;99.90;;;;;;5095768;28;20172;-80
2021/12/24 07:14:23;;;;;;;3.80;1.97;;;4.10;99.90;;;;;;5095043;28;20201;-79
2021/12/24 07:16:50;;;;;;;3.53;1.53;;;4.00;99.90;;;;;;5093782;28;20204;-79
2021/12/24 07:19:15;;;;;;;5.93;3.13;;;4.00;99.90;;;;;;5095240;28;20909;-80
2021/12/24 07:21:41;;;;;;;3.53;1.90;;;4.00;99.90;;;;;;5095194;28;20549;-80
2021/12/24 07:24:08;;;;;;;5.10;2.23;;;4.00;99.90;;;;;;5095230;28;20249;-80
2021/12/24 07:26:34;;;;;;;4.40;1.90;;;4.00;99.90;;;;;;5093991;28;20211;-80
2021/12/24 07:29:00;;;;;;;2.90;1.47;;;3.90;99.90;;;;;;5093438;28;20925;-80
2021/12/24 07:31:26;;;;;;;3.40;1.67;;;3.90;99.90;;;;;;5095145;28;20446;-80
2021/12/24 07:33:51;;;;;;;3.80;1.97;;;3.90;99.90;;;;;;5095026;28;20438;-80
2021/12/24 07:36:17;;;;;;;2.60;1.50;;;3.80;99.90;;;;;;5095122;28;20169;-80
2021/12/24 07:38:43;;;;;;;2.47;1.60;;;3.90;99.90;;;;;;5093316;28;20273;-80
2021/12/24 07:41:08;;;;;;;2.97;1.70;;;3.80;99.90;;;;;;5094760;28;20203;-80
2021/12/24 07:43:34;;;;;;;2.13;1.40;;;3.70;99.90;;;;;;5094103;28;20173;-81
2021/12/24 07:46:00;;;;;;;3.57;1.70;;;3.60;99.90;;;;;;5094376;28;20165;-80
2021/12/24 07:48:31;;;;;;;2.90;1.23;;;3.60;99.90;;;;;;5094692;28;20171;-80
2021/12/24 07:53:25;;;;;;;3.13;1.73;;;3.40;99.90;;;;;;5094654;28;20848;-81
2021/12/24 07:55:54;;;;;;;2.90;1.43;;;3.50;99.90;;;;;;5094590;28;20418;-80
2021/12/24 07:58:19;;;;;;;2.83;1.90;;;3.30;99.90;;;;;;5094565;28;20425;-80
2021/12/24 08:00:46;;;;;;;2.77;1.90;;;3.40;99.90;;;;;;5094258;28;20462;-80
2021/12/24 08:03:12;;;;;;;2.77;2.30;;;3.30;99.90;;;;;;5094370;28;20168;-81
2021/12/24 08:05:40;;;;;;;5.30;2.50;;;3.30;99.90;;;;;;5094393;28;20509;-80
2021/12/24 08:08:07;;;;;;;3.03;1.40;;;3.20;99.90;;;;;;5094439;28;20180;-80
2021/12/24 08:10:34;;;;;;;5.57;2.07;;;3.20;99.90;;;;;;5094660;28;20804;-80
2021/12/24 08:13:03;;;;;;;2.10;1.23;;;3.10;99.90;;;;;;5094521;28;20433;-83
2021/12/24 08:15:29;;;;;;;2.50;1.87;;;3.10;99.90;;;;;;5093718;28;20429;-80
2021/12/24 08:17:55;;;;;;;2.83;1.47;;;3.10;99.90;;;;;;5094287;28;20430;-79
2021/12/24 08:20:25;;;;;;;3.33;2.20;;;3.10;99.90;;;;;;5094127;28;20413;-80
2021/12/24 08:22:53;;;;;;;3.07;2.47;;;3.10;99.90;;;;;;5094017;28;20536;-80
2021/12/24 08:25:19;;;;;;;2.87;1.63;;;3.10;99.90;;;;;;5093881;28;20413;-80
2021/12/24 08:27:45;;;;;;;2.60;2.40;;;3.00;99.90;;;;;;5092714;28;20434;-81
2021/12/24 08:30:11;;;;;;;3.20;1.50;;;3.00;99.90;;;;;;5093829;28;20418;-79
2021/12/24 08:32:39;;;;;;;4.40;2.30;;;3.00;99.90;;;;;;5093976;28;20596;-80
2021/12/24 08:35:11;;;;;;;2.87;1.40;;;2.90;99.90;;;;;;5093971;28;20428;-80
2021/12/24 08:37:38;;;;;;;3.37;1.77;;;3.00;99.90;;;;;;5094032;28;20446;-80
2021/12/24 08:40:04;;;;;;;4.00;2.30;;;2.90;99.90;;;;;;5093598;28;20815;-80
2021/12/24 08:42:30;;;;;;;3.30;2.73;;;2.90;99.90;;;;;;5093728;28;20465;-80
2021/12/24 08:44:57;;;;;;;4.93;2.60;;;2.90;99.90;;;;;;5093383;28;20464;-80
2021/12/24 08:47:22;;;;;;;3.13;2.40;;;2.90;99.90;;;;;;5093662;28;20862;-80
2021/12/24 08:49:48;;;;;;;3.70;2.37;;;2.80;99.90;;;;;;5093608;28;20259;-79
2021/12/24 08:52:14;;;;;;;4.80;2.97;;;2.80;99.90;;;;;;5093565;28;20200;-80
2021/12/24 08:54:39;;;;;;;5.13;3.03;;;2.80;99.90;;;;;;5093541;28;20168;-80
2021/12/24 08:57:05;;;;;;;4.40;3.03;;;2.80;99.90;;;;;;5092331;28;20872;-80
2021/12/24 08:59:30;;;;;;;3.47;2.00;;;2.80;99.90;;;;;;5093142;28;20172;-80
2021/12/24 09:01:58;;;;;;;2.80;2.17;;;2.80;99.90;;;;;;5093376;28;20604;-80
2021/12/24 09:04:24;;;;;;;3.43;2.37;;;2.80;99.90;;;;;;5093384;28;20171;-80
2021/12/24 09:06:51;;;;;;;4.20;2.10;;;2.80;99.90;;;;;;5093531;28;20419;-80
2021/12/24 09:09:16;;;;;;;5.90;2.40;;;2.80;99.90;;;;;;5093336;28;20410;-80
2021/12/24 09:11:43;;;;;;;3.37;2.10;;;2.80;99.90;;;;;;5092236;28;20429;-80
2021/12/24 09:14:09;;;;;;;3.70;1.90;;;2.80;99.90;;;;;;5093040;28;20509;-81
2021/12/24 09:16:37;;;;;;;5.30;2.43;;;2.80;99.90;;;;;;5093270;28;20449;-80
2021/12/24 09:19:07;;;;;;;5.17;2.30;;;2.80;99.90;;;;;;5093516;28;20407;-80
2021/12/24 09:21:34;;;;;;;2.70;2.40;;;2.80;99.90;;;;;;5093157;28;20465;-79
2021/12/24 09:24:01;;;;;;;4.87;2.77;;;2.80;99.90;;;;;;5093277;28;20513;-79
2021/12/24 09:26:32;;;;;;;2.80;2.10;;;2.80;99.90;;;;;;5093428;28;20980;-80
2021/12/24 09:28:59;;;;;;;3.23;1.90;;;2.90;99.90;;;;;;5091646;28;20464;-80
2021/12/24 09:31:25;;;;;;;4.07;2.43;;;2.80;99.90;;;;;;5093051;28;20916;-80
2021/12/24 09:33:51;;;;;;;3.70;2.03;;;2.70;99.90;;;;;;5093397;28;20930;-80
2021/12/24 09:36:23;;;;;;;2.77;2.17;;;2.80;99.90;;;;;;5093178;28;21318;-80
2021/12/24 09:38:49;;;;;;;4.67;1.77;;;2.70;99.90;;;;;;5092854;28;20460;-80
2021/12/24 09:41:15;;;;;;;4.10;2.90;;;2.70;99.90;;;;;;5093084;28;20463;-80
2021/12/24 09:43:41;;;;;;;4.40;3.00;;;2.70;99.90;;;;;;5092935;28;20218;-82
2021/12/24 09:46:06;;;;;;;3.90;2.43;;;2.70;99.90;;;;;;5092942;28;20410;-80
2021/12/24 09:48:32;;;;;;;9.17;3.80;;;2.70;99.90;;;;;;5093017;28;20203;-80
2021/12/24 09:50:57;;;;;;;5.93;3.13;;;2.60;99.90;;;;;;5093015;28;20176;-80
2021/12/24 09:53:23;;;;;;;4.00;2.73;;;2.50;99.90;;;;;;5093087;28;20548;-80
2021/12/24 09:55:49;;;;;;;4.23;2.50;;;2.60;99.90;;;;;;5093066;28;20233;-80
2021/12/24 09:58:14;;;;;;;6.73;3.63;;;2.60;99.90;;;;;;5092860;28;20175;-80
2021/12/24 10:00:40;;;;;;;6.20;2.90;;;2.50;99.90;;;;;;5092581;28;20283;-80
2021/12/24 10:03:06;;;;;;;9.90;3.17;;;2.50;99.90;;;;;;5092921;28;20670;-80
2021/12/24 10:05:42;;;;;;;4.10;3.20;;;2.40;99.90;;;;;;5092781;28;20255;-80
2021/12/24 10:08:22;;;;;;;9.00;4.53;;;2.40;99.90;;;;;;5094089;28;20632;-80
2021/12/24 10:11:00;;;;;;;7.17;3.57;;;2.40;99.90;;;;;;5095417;28;20426;-80
2021/12/24 10:13:27;;;;;;;6.53;3.13;;;2.40;99.90;;;;;;5095432;28;20422;-80
2021/12/24 10:15:59;;;;;;;7.50;4.67;;;2.40;99.90;;;;;;5096223;28;20421;-80
2021/12/24 10:18:35;;;;;;;4.70;3.87;;;2.40;99.90;;;;;;5096743;28;20461;-80
2021/12/24 10:21:06;;;;;;;4.87;2.67;;;2.40;99.90;;;;;;5096318;28;20457;-80
2021/12/24 10:23:41;;;;;;;5.30;3.83;;;2.30;99.90;;;;;;5096422;28;20414;-80
2021/12/24 10:26:16;;;;;;;5.23;2.50;;;2.30;99.90;;;;;;5096282;28;20402;-80
2021/12/24 10:29:01;;;;;;;3.33;1.80;;;2.30;99.90;;;;;;5096176;28;20784;-82
2021/12/24 10:31:34;;;;;;;7.00;2.73;;;2.40;99.90;;;;;;5095117;28;20418;-80
2021/12/24 10:34:13;;;;;;;6.20;2.90;;;2.30;99.90;;;;;;5096039;28;20416;-81
2021/12/24 10:36:53;;;;;;;4.50;2.60;;;2.30;99.90;;;;;;5094942;28;20432;-80
2021/12/24 10:39:20;;;;;;;3.30;2.80;;;2.30;99.90;;;;;;5094733;28;20512;-81
2021/12/24 10:41:48;;;;;;;3.80;2.17;;;2.30;99.90;;;;;;5096039;28;20947;-80
2021/12/24 10:44:19;;;;;;;3.20;1.70;;;2.20;99.90;;;;;;5094660;28;20464;-81
2021/12/24 10:47:15;;;;;;;4.97;2.90;;;2.20;99.90;;;;;;5096244;28;20922;-80
2021/12/24 10:55:11;;;;;;;4.60;3.50;;;2.10;99.90;;;;;;5096012;28;20410;-80
2021/12/24 10:57:41;;;;;;;5.73;2.90;;;2.00;99.90;;;;;;5095972;28;20407;-80
2021/12/24 11:00:31;;;;;;;3.67;2.40;;;2.00;99.90;;;;;;5095351;28;20410;-80
2021/12/24 11:02:58;;;;;;;5.47;2.77;;;2.00;99.90;;;;;;5095843;28;20425;-80
2021/12/24 11:05:27;;;;;;;4.63;3.00;;;2.00;99.90;;;;;;5095730;28;20402;-80
2021/12/24 11:07:52;;;;;;;3.80;2.60;;;2.00;99.90;;;;;;5095571;28;20425;-80
2021/12/24 11:10:21;;;;;;;4.60;3.50;;;2.00;99.90;;;;;;5095608;28;20399;-80
2021/12/24 11:12:49;;;;;;;2.70;2.10;;;2.00;99.90;;;;;;5095572;28;20165;-80
2021/12/24 11:15:34;;;;;;;3.83;2.57;;;2.10;99.90;;;;;;5095127;28;20420;-81
2021/12/24 11:18:01;;;;;;;7.30;3.90;;;2.10;99.90;;;;;;5094840;28;20428;-80
2021/12/24 11:20:28;;;;;;;6.07;3.97;;;2.10;99.90;;;;;;5094678;28;20406;-80
2021/12/24 11:23:12;;;;;;;4.97;3.77;;;2.10;99.90;;;;;;5095199;28;20818;-81
2021/12/24 11:25:56;;;;;;;6.57;4.10;;;2.30;99.90;;;;;;5095346;28;20792;-80
2021/12/24 11:28:24;;;;;;;6.00;3.73;;;2.30;99.90;;;;;;5094887;28;20394;-80
2021/12/24 11:31:11;;;;;;;4.53;2.57;;;2.40;99.90;;;;;;5095458;28;20419;-80
2021/12/24 11:33:40;;;;;;;4.30;3.30;;;2.40;99.90;;;;;;5095212;28;20442;-80
2021/12/24 11:36:09;;;;;;;9.20;5.37;;;2.40;99.90;;;;;;5094989;28;20420;-80
2021/12/24 11:38:40;;;;;;;7.20;4.83;;;2.40;99.90;;;;;;5094986;28;20458;-80
2021/12/24 11:41:11;;;;;;;6.77;4.27;;;2.40;99.90;;;;;;5095013;28;20458;-80
2021/12/24 11:43:39;;;;;;;7.93;5.43;;;2.40;99.90;;;;;;5093415;28;20488;-80
2021/12/24 11:46:07;;;;;;;7.77;5.27;;;2.50;99.90;;;;;;5095006;28;20456;-80
2021/12/24 11:48:34;;;;;;;6.47;3.87;;;2.50;99.90;;;;;;5094787;28;20422;-80
2021/12/24 11:51:02;;;;;;;7.60;3.80;;;2.50;99.90;;;;;;5094779;28;20493;-90
2021/12/24 11:53:30;;;;;;;6.23;4.37;;;2.50;99.90;;;;;;5094744;28;20541;-80
2021/12/24 11:56:03;;;;;;;8.13;4.30;;;2.40;99.90;;;;;;5094661;28;20757;-80
2021/12/24 11:58:29;;;;;;;6.47;5.13;;;2.50;99.90;;;;;;5094273;28;20452;-80
2021/12/24 12:00:56;;;;;;;8.87;5.57;;;2.60;99.90;;;;;;5094542;28;20533;-80
2021/12/24 12:03:35;;;;;;;5.83;4.47;;;2.50;99.90;;;;;;5094465;28;20508;-80
2021/12/24 12:06:05;;;;;;;7.60;4.83;;;2.50;99.90;;;;;;5094448;28;20411;-80
2021/12/24 12:08:37;;;;;;;6.00;4.00;;;2.60;99.90;;;;;;5094417;28;20397;-80
2021/12/24 12:11:06;;;;;;;7.77;5.23;;;2.60;99.90;;;;;;5076659;28;20423;-80
2021/12/24 12:13:43;;;;;;;7.20;4.10;;;2.60;99.90;;;;;;5093984;28;20408;-80
2021/12/24 12:16:12;;;;;;;7.10;4.87;;;2.60;99.90;;;;;;5094290;28;20427;-80
2021/12/24 12:18:48;;;;;;;5.37;4.70;;;2.50;99.90;;;;;;5094214;28;20401;-80
2021/12/24 12:21:23;;;;;;;6.50;4.30;;;2.60;99.90;;;;;;5094189;28;20871;-82
2021/12/24 12:24:57;;;;;;;5.30;4.00;;;2.60;99.90;;;;;;5094203;28;20495;-80
2021/12/24 12:26:49;;;;;;;5.63;3.80;;;2.60;99.90;;;;;;5093844;28;20788;-80
2021/12/24 12:29:22;;;;;;;5.97;4.60;;;2.60;99.90;;;;;;5093691;28;20911;-80
2021/12/24 12:31:52;;;;;;;5.50;3.80;;;2.50;99.90;;;;;;5093665;28;20406;-80
2021/12/24 12:34:40;;;;;;;5.63;4.00;;;2.40;99.90;;;;;;5093975;28;20404;-81
2021/12/24 12:37:25;;;;;;;7.00;4.60;;;2.40;99.90;;;;;;5093834;28;20543;-80
2021/12/24 12:39:55;;;;;;;8.23;6.27;;;2.30;99.90;;;;;;5093724;28;20449;-80
2021/12/24 12:42:23;;;;;;;7.87;6.57;;;2.30;99.90;;;;;;5093641;28;20515;-80
2021/12/24 12:44:54;;;;;;;8.20;4.90;;;2.40;99.90;;;;;;5093452;28;20776;-81
2021/12/24 12:47:28;;;;;;;11.70;7.10;;;2.30;99.90;;;;;;5093691;28;20414;-80
2021/12/24 12:50:27;;;;;;;7.83;5.77;;;2.30;99.90;;;;;;5093716;28;20403;-80
2021/12/24 12:53:26;;;;;;;10.63;6.67;;;2.30;99.90;;;;;;5059935;28;21001;-80
2021/12/24 12:56:12;;;;;;;10.70;6.97;;;2.40;99.90;;;;;;5093572;28;20418;-80
2021/12/24 12:58:39;;;;;;;10.67;6.47;;;2.40;99.90;;;;;;5093260;28;20501;-80
2021/12/24 13:01:06;;;;;;;12.00;7.77;;;2.30;99.90;;;;;;5093577;28;20837;-80
2021/12/24 13:03:53;;;;;;;13.23;7.30;;;2.40;99.90;;;;;;5093476;28;20458;-80
2021/12/24 13:06:20;;;;;;;10.33;6.13;;;2.40;99.90;;;;;;5093035;28;20414;-80
2021/12/24 13:08:46;;;;;;;10.10;5.07;;;2.30;99.90;;;;;;5093287;28;20422;-81
2021/12/24 13:11:20;;;;;;;11.33;7.23;;;2.40;99.90;;;;;;5092068;28;20414;-80
2021/12/24 13:13:57;;;;;;;12.93;7.50;;;2.30;99.90;;;;;;5091831;28;20422;-81
2021/12/24 13:16:42;;;;;;;10.00;6.07;;;2.30;99.90;;;;;;5093408;28;20410;-82
2021/12/24 13:25:13;;;;;;;9.80;6.23;;;2.20;99.90;;;;;;5093338;28;20401;-80
2021/12/24 13:27:40;;;;;;;8.50;5.83;;;2.20;99.90;;;;;;5093265;28;20420;-79
2021/12/24 13:30:15;;;;;;;9.87;6.90;;;2.20;99.90;;;;;;5093011;28;20406;-80
2021/12/24 13:32:51;;;;;;;9.00;6.43;;;2.10;99.90;;;;;;5093239;28;20402;-81
2021/12/24 13:35:30;;;;;;;8.10;6.37;;;2.00;99.90;;;;;;5093188;28;20394;-80
2021/12/24 13:37:57;;;;;;;11.33;7.70;;;2.10;99.90;;;;;;5091693;28;20429;-79
2021/12/24 13:40:28;;;;;;;10.93;7.77;;;2.10;99.90;;;;;;5093145;28;20455;-80
2021/12/24 13:43:03;;;;;;;9.20;6.70;;;2.00;99.90;;;;;;5094027;28;20438;-80
2021/12/24 13:45:33;;;;;;;13.10;8.33;;;2.00;99.90;;;;;;5095977;28;20457;-81
2021/12/24 13:48:07;;;;;;;11.90;7.40;;;1.90;99.90;;;;;;5097166;28;20426;-80
2021/12/24 13:56:16;;;;;;;13.53;7.57;;;2.00;99.90;;;;;;5097187;28;20975;-82
2021/12/24 13:58:52;;;;;;;14.90;7.90;;;2.00;99.90;;;;;;5096510;28;20398;-80
2021/12/24 14:01:23;;;;;;;11.00;7.53;;;2.10;99.90;;;;;;5096970;28;20949;-81
2021/12/24 14:03:49;;;;;;;16.70;9.50;;;2.00;99.90;;;;;;5096860;28;20861;-80
2021/12/24 14:06:14;;;;;;;11.47;7.63;;;2.00;99.90;;;;;;5096941;28;20494;-81
2021/12/24 14:08:40;;;;;;;12.40;6.77;;;2.00;99.90;;;;;;5096621;28;20405;-84
2021/12/24 14:11:10;;;;;;;13.23;7.70;;;2.00;99.90;;;;;;5096623;28;20172;-81
2021/12/24 14:13:41;;;;;;;11.37;7.77;;;2.10;99.90;;;;;;5096338;28;20429;-82
2021/12/24 14:16:15;;;;;;;11.87;7.50;;;2.10;99.90;;;;;;5095453;28;20430;-84
2021/12/24 14:24:27;;;;;;;14.40;8.50;;;2.10;99.90;;;;;;5096409;28;20406;-84
2021/12/24 14:27:12;;;;;;;13.00;7.10;;;2.10;99.90;;;;;;5093793;28;20483;-80
2021/12/24 14:29:40;;;;;;;13.33;9.27;;;2.10;99.90;;;;;;5096020;28;20468;-80
2021/12/24 14:32:26;;;;;;;15.33;10.47;;;2.00;99.90;;;;;;5096159;28;20452;-80
2021/12/24 14:34:56;;;;;;;15.67;8.70;;;2.00;99.90;;;;;;5096275;28;20416;-80
2021/12/24 14:37:33;;;;;;;12.53;8.17;;;2.00;99.90;;;;;;5096156;28;20459;-80
2021/12/24 14:40:11;;;;;;;11.70;8.70;;;1.90;99.90;;;;;;5096177;28;20858;-80
2021/12/24 14:42:51;;;;;;;17.23;10.60;;;1.90;99.90;;;;;;5095960;28;20473;-80
2021/12/24 14:45:37;;;;;;;22.80;10.33;;;1.90;99.90;;;;;;5096103;28;20418;-80
2021/12/24 14:48:07;;;;;;;16.10;9.10;;;1.90;99.90;;;;;;5096226;28;20450;-80
2021/12/24 14:51:02;;;;;;;16.27;8.93;;;1.90;99.90;;;;;;5094656;28;20419;-80
2021/12/24 14:53:36;;;;;;;13.67;8.80;;;1.90;99.90;;;;;;5095678;28;20488;-83
2021/12/24 14:56:06;;;;;;;16.83;10.03;;;1.90;99.90;;;;;;5095836;28;20393;-80
2021/12/24 14:58:40;;;;;;;18.00;9.40;;;1.90;99.90;;;;;;5095461;28;20407;-81
2021/12/24 15:01:09;;;;;;;13.50;8.80;;;1.80;99.90;;;;;;5094344;28;20459;-80
2021/12/24 15:03:38;;;;;;;15.60;8.73;;;1.80;99.90;;;;;;5095641;28;20423;-79
2021/12/24 15:06:25;;;;;;;15.57;8.33;;;1.80;99.90;;;;;;5095610;28;20426;-80